| time (UTC) | temp C | wind direction | speed KPH | gust KPH | rain 1hr cm | rain 24hr cm | rain mn cm | humidity % | barometer mb |
| 20260906063200 | 22 | 44 | 0.0 | 3.2 | 0.00 | 0.00 | 0.00 | 88 | 1016.8 |
| 20260906054547 | 23 | 205 | 0.0 | 1.6 | 0.00 | 0.00 | 0.00 | 86 | 1017.9 |
| 20260906050200 | 23 | 297 | 0.0 | 3.2 | 0.00 | 0.00 | 0.00 | 87 | 1018.0 |
| 20260906044608 | 23 | 255 | 0.0 | 4.8 | 0.00 | 0.00 | 0.00 | 85 | 1017.8 |
| 20260906040159 | 24 | 62 | 0.0 | 3.2 | 0.00 | 0.00 | 0.00 | 83 | 1017.9 |
| 20260906033159 | 24 | 253 | 1.6 | 3.2 | 0.00 | 0.00 | 0.00 | 81 | 1018.3 |
| 20260906030159 | 25 | 15 | 0.0 | 3.2 | 0.00 | 0.00 | 0.00 | 79 | 1018.4 |
| 20260906020159 | 25 | 37 | 0.0 | 3.2 | 0.00 | 0.00 | 0.00 | 75 | 1017.6 |
| 20260906013159 | 26 | 284 | 0.0 | 3.2 | 0.00 | 0.00 | 0.00 | 73 | 1017.7 |
| 20260906011545 | 27 | 224 | 0.0 | 3.2 | 0.00 | 0.00 | 0.00 | 70 | 1017.2 |
| 20260906003159 | 27 | 269 | 0.0 | 3.2 | 0.00 | 0.00 | 0.00 | 69 | 1016.7 |
| 20260906000159 | 28 | 345 | 0.0 | 1.6 | 0.00 | 0.00 | 0.00 | 67 | 1016.8 |
| 20260905233159 | 28 | 315 | 0.0 | 3.2 | 0.00 | 0.00 | 0.00 | 65 | 1016.4 |
| 20260905231534 | 29 | 258 | 0.0 | 3.2 | 0.00 | 0.00 | 0.00 | 63 | 1016.3 |
| 20260905223201 | 29 | 352 | 0.0 | 4.8 | 0.00 | 0.00 | 0.00 | 64 | 1016.5 |
| 20260905220200 | 28 | 22 | 1.6 | 6.4 | 0.00 | 0.00 | 0.00 | 62 | 1016.1 |
| 20260905213200 | 28 | 15 | 0.0 | 8.0 | 0.00 | 0.00 | 0.00 | 61 | 1016.7 |
| 20260905210159 | 28 | 28 | 3.2 | 9.7 | 0.00 | 0.00 | 0.00 | 61 | 1017.3 |
| 20260905203200 | 28 | 84 | 4.8 | 8.0 | 0.00 | 0.00 | 0.00 | 61 | 1017.3 |
| 20260905200159 | 28 | 59 | 6.4 | 9.7 | 0.00 | 0.00 | 0.00 | 58 | 1017.8 |
| 20260905193200 | 28 | 64 | 1.6 | 6.4 | 0.00 | 0.00 | 0.00 | 62 | 1018.2 |
| 20260905190159 | 28 | 17 | 3.2 | 4.8 | 0.00 | 0.00 | 0.00 | 64 | 1018.3 |
| 20260905183200 | 28 | 30 | 3.2 | 8.0 | 0.00 | 0.00 | 0.00 | 60 | 1019.1 |
| 20260905181558 | 29 | 80 | 3.2 | 24.1 | 0.00 | 0.00 | 0.00 | 56 | 1019.2 |
| 20260905173159 | 32 | 231 | 3.2 | 14.5 | 0.00 | 0.00 | 0.00 | 55 | 1018.1 |
| 20260905170159 | 33 | 286 | 3.2 | 14.5 | 0.00 | 0.00 | 0.00 | 54 | 1018.7 |
| 20260905164536 | 33 | 31 | 0.0 | 16.1 | 0.00 | 0.00 | 0.00 | 54 | 1018.7 |
| 20260905160159 | 32 | 27 | 4.8 | 12.9 | 0.00 | 0.00 | 0.00 | 59 | 1018.9 |
| 20260905153159 | 31 | 5 | 3.2 | 9.7 | 0.00 | 0.00 | 0.00 | 61 | 1019.5 |
| 20260905150159 | 30 | 307 | 3.2 | 9.7 | 0.00 | 0.00 | 0.00 | 65 | 1018.9 |
| 20260905143159 | 29 | 12 | 3.2 | 9.7 | 0.00 | 0.00 | 0.00 | 69 | 1019.4 |
| 20260905133159 | 26 | 346 | 1.6 | 8.0 | 0.00 | 0.00 | 0.00 | 81 | 1019.6 |
| 20260905130159 | 24 | 42 | 4.8 | 8.0 | 0.00 | 0.00 | 0.00 | 84 | 1019.9 |
| 20260905123159 | 22 | 56 | 3.2 | 4.8 | 0.00 | 0.00 | 0.00 | 87 | 1020.0 |
| 20260905120159 | 21 | 68 | 3.2 | 4.8 | 0.00 | 0.00 | 0.00 | 88 | 1020.0 |
| 20260905113159 | 22 | 96 | 0.0 | 3.2 | 0.00 | 0.00 | 0.00 | 85 | 1019.4 |
| 20260905110200 | 22 | 135 | 0.0 | 1.6 | 0.00 | 0.00 | 0.00 | 86 | 1019.1 |
| 20260905103159 | 21 | 230 | 0.0 | 1.6 | 0.00 | 0.00 | 0.00 | 88 | 1018.8 |
| 20260905101549 | 21 | 315 | 0.0 | 1.6 | 0.00 | 0.00 | 0.00 | 86 | 1018.4 |
| 20260905094542 | 22 | 50 | 0.0 | 1.6 | 0.00 | 0.00 | 0.00 | 85 | 1018.4 |
| 20260905090159 | 22 | 44 | 0.0 | 1.6 | 0.00 | 0.00 | 0.00 | 86 | 1018.6 |
| 20260905083159 | 22 | 297 | 0.0 | 1.6 | 0.00 | 0.00 | 0.00 | 85 | 1019.1 |
| 20260905081603 | 22 | 44 | 0.0 | 1.6 | 0.00 | 0.00 | 0.00 | 84 | 1019.3 |
| 20260905073159 | 23 | 50 | 0.0 | 1.6 | 0.00 | 0.00 | 0.00 | 84 | 1019.4 |
| 20260905070200 | 23 | 284 | 0.0 | 0.0 | 0.00 | 0.00 | 0.00 | 82 | 1019.7 |